Airfield :
LOGIN :

Register | Disclaimer

   EN    FR    IT 

 










Legend :    VFR   Marginal VFR   IFR   Intensive IFR   Very Intensive IFR
Visi :
Ceiling :
>= 8 km
>= 3000ft
5 to 8 km
1000 to 3000 ft
1500m to 5 km
500 to 1000 ft
800 to 1500m
200 to 500 ft
< 800m
< 200 ft
Symbols :   Thunderstorms  Fog  Heavy snow  Heavy precipitations  Wind > 20 kt
SIGMETs :     Misc.  Thunderstorms  Icing  Turbulence  Mountain Waves  Volcanic Ashes







- Airport Elevation : 1959 ft
- IATA code : HOQ


EDQM - Hof Plauen

CURRENT METAR :
  • 220850Z 22007KT 170V280 9999 BKN009 OVC011 05/03 Q1012

EXPIRED METARs :
  • 220820Z 24008KT 210V280 9000 OVC010 05/03 Q1011
  • 220750Z 24011KT 200V270 9000 OVC009 05/03 Q1011
  • 220720Z 23010KT 200V270 9000 OVC009 05/03 Q1011
  • 220650Z 24010KT 190V280 9999 BKN009 OVC010 05/03 Q1011
  • 220620Z 22008KT 190V320 9000 OVC008 05/03 Q1011

TAF TAF EDQM
Valid from the 22 at 09:00 until the 22 at 18:00 UTC


220800Z 2209/2218 23010KT 9000 OVC009
BECMG 2209/2211 BKN012
BECMG 2212/2214 SCT012
No reported NOTAMs for that airfield.



MET'MAP, your aeronautical weather chart ! - Copyright ORBIFLY December 2007 - Disclaimer

ORBIFLY MET'MAP TEAM :

Programming & Development : Alexandra Zaïnal
Concept & Development : Baudouin d'Aumeries
Co-Development & Prog : Marc-Olivier Méhu
Technical & hardware support : Manuel Goepfert

Contact : metmap@orbifly.com




SOURCES & CREDITS :

   NOAA